sensor_id;sensor_type;location;lat;lon;timestamp;pressure;altitude;pressure_sealevel;temperature;humidity
57248;BME280;55809;46.618;10.764;2023-03-22T00:01:13;92870.50;;;9.48;59.84
57248;BME280;55809;46.618;10.764;2023-03-22T00:03:42;92870.09;;;9.46;58.84
57248;BME280;55809;46.618;10.764;2023-03-22T00:06:09;92873.97;;;9.45;59.07
57248;BME280;55809;46.618;10.764;2023-03-22T00:08:36;92862.44;;;9.41;59.41
57248;BME280;55809;46.618;10.764;2023-03-22T00:11:06;92869.72;;;9.44;59.22
57248;BME280;55809;46.618;10.764;2023-03-22T00:13:35;92843.28;;;9.28;59.91
57248;BME280;55809;46.618;10.764;2023-03-22T00:16:04;92862.81;;;9.43;59.81
57248;BME280;55809;46.618;10.764;2023-03-22T00:18:33;92863.22;;;9.38;58.82
57248;BME280;55809;46.618;10.764;2023-03-22T00:21:04;92866.72;;;9.31;59.14
57248;BME280;55809;46.618;10.764;2023-03-22T00:23:33;92864.03;;;9.24;59.70
57248;BME280;55809;46.618;10.764;2023-03-22T00:26:01;92865.94;;;9.31;58.67
57248;BME280;55809;46.618;10.764;2023-03-22T00:28:31;92840.25;;;9.05;58.76
57248;BME280;55809;46.618;10.764;2023-03-22T00:31:00;92856.78;;;9.14;59.03
57248;BME280;55809;46.618;10.764;2023-03-22T00:33:30;92855.63;;;9.08;59.25
57248;BME280;55809;46.618;10.764;2023-03-22T00:36:00;92856.09;;;8.96;59.50
57248;BME280;55809;46.618;10.764;2023-03-22T00:38:28;92856.88;;;8.85;59.93
57248;BME280;55809;46.618;10.764;2023-03-22T00:41:06;92847.25;;;8.81;59.81
57248;BME280;55809;46.618;10.764;2023-03-22T00:43:38;92865.34;;;8.80;59.62
57248;BME280;55809;46.618;10.764;2023-03-22T00:46:06;92851.88;;;8.80;59.46
57248;BME280;55809;46.618;10.764;2023-03-22T00:48:33;92839.63;;;8.72;59.18
57248;BME280;55809;46.618;10.764;2023-03-22T00:51:02;92848.41;;;8.87;59.56
57248;BME280;55809;46.618;10.764;2023-03-22T00:53:32;92848.81;;;8.82;59.60
57248;BME280;55809;46.618;10.764;2023-03-22T00:56:00;92839.94;;;8.85;59.71
57248;BME280;55809;46.618;10.764;2023-03-22T00:58:29;92840.72;;;8.89;59.29
57248;BME280;55809;46.618;10.764;2023-03-22T01:00:59;92842.28;;;8.79;59.28
57248;BME280;55809;46.618;10.764;2023-03-22T01:03:27;92845.34;;;8.78;59.75
57248;BME280;55809;46.618;10.764;2023-03-22T01:05:56;92850.72;;;8.78;60.05
57248;BME280;55809;46.618;10.764;2023-03-22T01:08:24;92843.81;;;8.80;59.78
57248;BME280;55809;46.618;10.764;2023-03-22T01:10:58;92848.81;;;8.82;59.79
57248;BME280;55809;46.618;10.764;2023-03-22T01:13:25;92843.03;;;8.83;59.67
57248;BME280;55809;46.618;10.764;2023-03-22T01:15:55;92849.59;;;8.82;59.89
57248;BME280;55809;46.618;10.764;2023-03-22T01:18:25;92848.81;;;8.82;60.57
57248;BME280;55809;46.618;10.764;2023-03-22T01:21:01;92852.28;;;8.82;60.35
57248;BME280;55809;46.618;10.764;2023-03-22T01:23:30;92851.50;;;8.78;60.57
57248;BME280;55809;46.618;10.764;2023-03-22T01:25:58;92865.00;;;8.57;60.59
57248;BME280;55809;46.618;10.764;2023-03-22T01:28:29;92862.34;;;8.46;60.75
57248;BME280;55809;46.618;10.764;2023-03-22T01:31:01;92860.41;;;8.43;60.93
57248;BME280;55809;46.618;10.764;2023-03-22T01:33:34;92866.56;;;8.43;60.87
57248;BME280;55809;46.618;10.764;2023-03-22T01:36:04;92864.63;;;8.48;61.06
57248;BME280;55809;46.618;10.764;2023-03-22T01:38:31;92851.53;;;8.35;61.45
57248;BME280;55809;46.618;10.764;2023-03-22T01:41:00;92855.81;;;8.40;60.11
57248;BME280;55809;46.618;10.764;2023-03-22T01:43:30;92862.31;;;8.32;60.54
57248;BME280;55809;46.618;10.764;2023-03-22T01:46:02;92862.31;;;8.25;60.62
57248;BME280;55809;46.618;10.764;2023-03-22T01:48:35;92860.38;;;8.25;60.82
57248;BME280;55809;46.618;10.764;2023-03-22T01:51:11;92852.72;;;8.27;60.50
57248;BME280;55809;46.618;10.764;2023-03-22T01:53:43;92860.78;;;8.23;60.15
57248;BME280;55809;46.618;10.764;2023-03-22T01:56:12;92856.16;;;8.24;60.82
57248;BME280;55809;46.618;10.764;2023-03-22T01:58:41;92856.56;;;8.26;60.86
57248;BME280;55809;46.618;10.764;2023-03-22T02:01:10;92857.69;;;8.29;60.47
57248;BME280;55809;46.618;10.764;2023-03-22T02:03:49;92857.69;;;8.25;60.13
57248;BME280;55809;46.618;10.764;2023-03-22T02:06:19;92857.69;;;8.21;60.66
57248;BME280;55809;46.618;10.764;2023-03-22T02:08:48;92860.38;;;8.18;60.53
57248;BME280;55809;46.618;10.764;2023-03-22T02:11:28;92842.72;;;8.03;60.78
57248;BME280;55809;46.618;10.764;2023-03-22T02:14:28;92860.00;;;8.12;60.49
57248;BME280;55809;46.618;10.764;2023-03-22T02:17:10;92856.56;;;7.97;61.31
57248;BME280;55809;46.618;10.764;2023-03-22T02:22:59;92868.06;;;7.77;61.69
57248;BME280;55809;46.618;10.764;2023-03-22T02:28:42;92874.56;;;7.75;61.69
57248;BME280;55809;46.618;10.764;2023-03-22T02:37:56;92836.53;;;7.45;61.96
57248;BME280;55809;46.618;10.764;2023-03-22T02:40:30;92873.03;;;7.71;61.89
57248;BME280;55809;46.618;10.764;2023-03-22T02:43:11;92873.03;;;7.74;61.97
57248;BME280;55809;46.618;10.764;2023-03-22T02:45:47;92881.06;;;7.67;61.97
57248;BME280;55809;46.618;10.764;2023-03-22T02:48:25;92869.91;;;7.55;62.16
57248;BME280;55809;46.618;10.764;2023-03-22T02:50:59;92814.19;;;7.09;62.34
57248;BME280;55809;46.618;10.764;2023-03-22T02:53:35;92866.47;;;7.50;62.72
57248;BME280;55809;46.618;10.764;2023-03-22T02:56:10;92868.34;;;7.46;62.48
57248;BME280;55809;46.618;10.764;2023-03-22T02:58:43;92867.19;;;7.40;62.91
57248;BME280;55809;46.618;10.764;2023-03-22T03:01:17;92870.25;;;7.42;62.68
57248;BME280;55809;46.618;10.764;2023-03-22T03:03:48;92849.88;;;7.27;62.73
57248;BME280;55809;46.618;10.764;2023-03-22T03:06:16;92871.81;;;7.47;62.63
57248;BME280;55809;46.618;10.764;2023-03-22T03:08:47;92865.31;;;7.51;62.91
57248;BME280;55809;46.618;10.764;2023-03-22T03:11:20;92806.53;;;7.18;62.66
57248;BME280;55809;46.618;10.764;2023-03-22T03:13:49;92857.63;;;7.50;62.63
57248;BME280;55809;46.618;10.764;2023-03-22T03:16:20;92865.72;;;7.54;62.57
57248;BME280;55809;46.618;10.764;2023-03-22T03:18:57;92873.38;;;7.55;62.91
57248;BME280;55809;46.618;10.764;2023-03-22T03:21:32;92880.66;;;7.58;62.08
57248;BME280;55809;46.618;10.764;2023-03-22T03:24:16;92873.72;;;7.50;62.50
57248;BME280;55809;46.618;10.764;2023-03-22T03:27:01;92884.81;;;7.34;63.34
57248;BME280;55809;46.618;10.764;2023-03-22T03:29:37;92882.09;;;7.27;63.09
57248;BME280;55809;46.618;10.764;2023-03-22T03:32:08;92878.66;;;7.34;63.64
57248;BME280;55809;46.618;10.764;2023-03-22T03:34:42;92877.53;;;7.31;63.75
57248;BME280;55809;46.618;10.764;2023-03-22T03:37:16;92885.94;;;7.29;63.69
57248;BME280;55809;46.618;10.764;2023-03-22T03:39:45;92884.03;;;7.30;63.64
57248;BME280;55809;46.618;10.764;2023-03-22T03:42:20;92876.78;;;7.34;63.35
57248;BME280;55809;46.618;10.764;2023-03-22T03:44:54;92879.47;;;7.41;63.44
57248;BME280;55809;46.618;10.764;2023-03-22T03:47:24;92872.94;;;7.35;62.91
57248;BME280;55809;46.618;10.764;2023-03-22T03:49:52;92840.28;;;7.15;62.96
57248;BME280;55809;46.618;10.764;2023-03-22T03:52:20;92879.47;;;7.41;63.10
57248;BME280;55809;46.618;10.764;2023-03-22T03:54:50;92874.47;;;7.43;63.08
57248;BME280;55809;46.618;10.764;2023-03-22T03:57:20;92882.16;;;7.41;62.64
57248;BME280;55809;46.618;10.764;2023-03-22T03:59:49;92888.28;;;7.38;62.85
57248;BME280;55809;46.618;10.764;2023-03-22T04:02:17;92882.53;;;7.43;62.82
57248;BME280;55809;46.618;10.764;2023-03-22T04:04:46;92888.28;;;7.38;63.32
57248;BME280;55809;46.618;10.764;2023-03-22T04:07:14;92869.03;;;7.15;63.27
57248;BME280;55809;46.618;10.764;2023-03-22T04:09:42;92856.66;;;6.92;63.67
57248;BME280;55809;46.618;10.764;2023-03-22T04:12:11;92885.84;;;7.01;64.10
57248;BME280;55809;46.618;10.764;2023-03-22T04:14:42;92877.38;;;6.92;64.00
57248;BME280;55809;46.618;10.764;2023-03-22T04:17:12;92876.94;;;6.86;64.40
57248;BME280;55809;46.618;10.764;2023-03-22T04:19:39;92873.47;;;6.82;64.69
57248;BME280;55809;46.618;10.764;2023-03-22T04:22:10;92859.97;;;6.64;64.65
57248;BME280;55809;46.618;10.764;2023-03-22T04:24:40;92868.81;;;6.68;64.82
57248;BME280;55809;46.618;10.764;2023-03-22T04:27:08;92834.97;;;6.46;65.29
57248;BME280;55809;46.618;10.764;2023-03-22T04:29:37;92838.00;;;6.41;65.12
57248;BME280;55809;46.618;10.764;2023-03-22T04:32:07;92873.75;;;6.63;65.38
57248;BME280;55809;46.618;10.764;2023-03-22T04:34:36;92878.00;;;6.71;65.12
57248;BME280;55809;46.618;10.764;2023-03-22T04:37:02;92866.13;;;6.68;65.15
57248;BME280;55809;46.618;10.764;2023-03-22T04:39:31;92856.50;;;6.64;65.48
57248;BME280;55809;46.618;10.764;2023-03-22T04:41:58;92859.22;;;6.71;64.98
57248;BME280;55809;46.618;10.764;2023-03-22T04:44:26;92856.22;;;6.83;64.25
57248;BME280;55809;46.618;10.764;2023-03-22T04:46:55;92854.75;;;6.93;63.76
57248;BME280;55809;46.618;10.764;2023-03-22T04:49:24;92847.13;;;6.98;63.89
57248;BME280;55809;46.618;10.764;2023-03-22T04:51:53;92852.09;;;7.03;63.37
57248;BME280;55809;46.618;10.764;2023-03-22T04:54:22;92845.94;;;6.99;63.62
57248;BME280;55809;46.618;10.764;2023-03-22T04:56:51;92854.78;;;7.03;63.76
57248;BME280;55809;46.618;10.764;2023-03-22T04:59:20;92857.00;;;6.87;64.56
57248;BME280;55809;46.618;10.764;2023-03-22T05:01:49;92859.97;;;6.64;64.89
57248;BME280;55809;46.618;10.764;2023-03-22T05:04:18;92842.91;;;6.31;65.51
57248;BME280;55809;46.618;10.764;2023-03-22T05:06:54;92872.78;;;6.30;65.98
57248;BME280;55809;46.618;10.764;2023-03-22T05:09:22;92879.63;;;6.27;66.39
57248;BME280;55809;46.618;10.764;2023-03-22T05:11:50;92882.00;;;6.36;66.37
57248;BME280;55809;46.618;10.764;2023-03-22T05:14:18;92878.63;;;6.46;65.74
57248;BME280;55809;46.618;10.764;2023-03-22T05:16:47;92884.44;;;6.55;65.17
57248;BME280;55809;46.618;10.764;2023-03-22T05:19:18;92882.56;;;6.63;64.92
57248;BME280;55809;46.618;10.764;2023-03-22T05:21:48;92886.78;;;6.68;64.78
57248;BME280;55809;46.618;10.764;2023-03-22T05:24:24;92892.09;;;6.57;65.08
57248;BME280;55809;46.618;10.764;2023-03-22T05:26:52;92890.53;;;6.49;65.50
57248;BME280;55809;46.618;10.764;2023-03-22T05:29:20;92901.59;;;6.47;65.69
57248;BME280;55809;46.618;10.764;2023-03-22T05:31:49;92901.63;;;6.51;65.51
57248;BME280;55809;46.618;10.764;2023-03-22T05:34:17;92907.75;;;6.51;65.69
57248;BME280;55809;46.618;10.764;2023-03-22T05:36:47;92905.88;;;6.52;65.72
57248;BME280;55809;46.618;10.764;2023-03-22T05:39:17;92896.13;;;6.29;65.34
57248;BME280;55809;46.618;10.764;2023-03-22T05:41:48;92905.78;;;6.41;65.31
57248;BME280;55809;46.618;10.764;2023-03-22T05:44:19;92916.50;;;6.41;65.57
57248;BME280;55809;46.618;10.764;2023-03-22T05:46:45;92904.25;;;6.44;65.09
57248;BME280;55809;46.618;10.764;2023-03-22T05:49:13;92903.97;;;7.29;62.79
57248;BME280;55809;46.618;10.764;2023-03-22T05:51:45;92908.78;;;8.14;59.49
57248;BME280;55809;46.618;10.764;2023-03-22T05:54:17;92905.38;;;8.46;58.48
57248;BME280;55809;46.618;10.764;2023-03-22T05:56:44;92903.03;;;8.73;57.76
57248;BME280;55809;46.618;10.764;2023-03-22T05:59:14;92914.88;;;9.04;56.79
57248;BME280;55809;46.618;10.764;2023-03-22T06:01:47;92890.66;;;9.11;56.29
57248;BME280;55809;46.618;10.764;2023-03-22T06:04:17;92912.13;;;9.33;55.43
57248;BME280;55809;46.618;10.764;2023-03-22T06:06:46;92898.97;;;9.46;55.10
57248;BME280;55809;46.618;10.764;2023-03-22T06:09:16;92919.94;;;9.86;54.02
57248;BME280;55809;46.618;10.764;2023-03-22T06:11:44;92914.44;;;10.08;53.38
57248;BME280;55809;46.618;10.764;2023-03-22T06:14:14;92913.22;;;10.16;52.81
57248;BME280;55809;46.618;10.764;2023-03-22T06:16:42;92912.00;;;10.31;52.76
57248;BME280;55809;46.618;10.764;2023-03-22T06:19:13;92906.09;;;10.47;52.04
57248;BME280;55809;46.618;10.764;2023-03-22T06:21:41;92893.63;;;10.64;51.50
57248;BME280;55809;46.618;10.764;2023-03-22T06:24:09;92906.41;;;10.98;50.76
57248;BME280;55809;46.618;10.764;2023-03-22T06:26:40;92898.63;;;11.07;50.44
57248;BME280;55809;46.618;10.764;2023-03-22T06:29:09;92891.16;;;11.18;50.18
57248;BME280;55809;46.618;10.764;2023-03-22T06:31:38;92897.22;;;11.30;50.39
57248;BME280;55809;46.618;10.764;2023-03-22T06:34:06;92896.56;;;11.53;49.82
57248;BME280;55809;46.618;10.764;2023-03-22T06:36:36;92888.31;;;11.63;49.49
57248;BME280;55809;46.618;10.764;2023-03-22T06:39:03;92895.13;;;11.75;49.22
57248;BME280;55809;46.618;10.764;2023-03-22T06:41:31;92886.91;;;11.86;48.65
57248;BME280;55809;46.618;10.764;2023-03-22T06:44:00;92887.56;;;11.93;48.27
57248;BME280;55809;46.618;10.764;2023-03-22T06:46:30;92888.38;;;11.90;48.21
57248;BME280;55809;46.618;10.764;2023-03-22T06:49:06;92889.41;;;11.69;48.29
57248;BME280;55809;46.618;10.764;2023-03-22T06:51:35;92884.44;;;11.64;48.50
57248;BME280;55809;46.618;10.764;2023-03-22T06:54:03;92885.28;;;11.58;48.35
57248;BME280;55809;46.618;10.764;2023-03-22T06:56:32;92870.25;;;11.87;48.00
57248;BME280;55809;46.618;10.764;2023-03-22T06:59:09;92886.28;;;12.29;47.37
57248;BME280;55809;46.618;10.764;2023-03-22T07:01:39;92884.91;;;12.44;46.96
57248;BME280;55809;46.618;10.764;2023-03-22T07:04:11;92839.41;;;12.35;46.17
57248;BME280;55809;46.618;10.764;2023-03-22T07:06:39;92881.06;;;12.88;45.64
57248;BME280;55809;46.618;10.764;2023-03-22T07:09:08;92877.56;;;13.11;44.99
57248;BME280;55809;46.618;10.764;2023-03-22T07:11:37;92875.41;;;13.26;44.92
57248;BME280;55809;46.618;10.764;2023-03-22T07:14:05;92884.91;;;13.54;44.40
57248;BME280;55809;46.618;10.764;2023-03-22T07:16:34;92882.69;;;13.69;43.46
57248;BME280;55809;46.618;10.764;2023-03-22T07:19:02;92883.16;;;13.84;43.52
57248;BME280;55809;46.618;10.764;2023-03-22T07:21:34;92884.28;;;13.67;42.84
57248;BME280;55809;46.618;10.764;2023-03-22T07:24:03;92885.84;;;13.84;42.91
57248;BME280;55809;46.618;10.764;2023-03-22T07:26:33;92885.19;;;13.80;42.88
57248;BME280;55809;46.618;10.764;2023-03-22T07:29:02;92882.31;;;13.87;42.75
57248;BME280;55809;46.618;10.764;2023-03-22T07:31:31;92871.66;;;13.96;42.05
57248;BME280;55809;46.618;10.764;2023-03-22T07:34:02;92885.09;;;14.20;42.03
57248;BME280;55809;46.618;10.764;2023-03-22T07:36:29;92850.91;;;14.06;41.88
57248;BME280;55809;46.618;10.764;2023-03-22T07:38:59;92883.81;;;14.41;41.42
57248;BME280;55809;46.618;10.764;2023-03-22T07:41:28;92882.34;;;14.56;41.36
57248;BME280;55809;46.618;10.764;2023-03-22T07:43:56;92889.91;;;14.81;40.91
57248;BME280;55809;46.618;10.764;2023-03-22T07:46:23;92830.16;;;14.65;40.50
57248;BME280;55809;46.618;10.764;2023-03-22T07:48:51;92884.44;;;15.14;40.55
57248;BME280;55809;46.618;10.764;2023-03-22T07:51:20;92883.25;;;15.44;40.03
57248;BME280;55809;46.618;10.764;2023-03-22T07:53:48;92882.03;;;15.74;39.35
57248;BME280;55809;46.618;10.764;2023-03-22T07:56:19;92889.03;;;15.88;38.47
57248;BME280;55809;46.618;10.764;2023-03-22T07:58:50;92885.34;;;15.94;38.92
57248;BME280;55809;46.618;10.764;2023-03-22T08:01:18;92888.63;;;15.89;39.51
57248;BME280;55809;46.618;10.764;2023-03-22T08:03:47;92881.19;;;15.77;39.33
57248;BME280;55809;46.618;10.764;2023-03-22T08:06:16;92886.94;;;15.79;39.80
57248;BME280;55809;46.618;10.764;2023-03-22T08:08:44;92884.06;;;15.99;38.75
57248;BME280;55809;46.618;10.764;2023-03-22T08:11:15;92882.19;;;16.09;38.46
57248;BME280;55809;46.618;10.764;2023-03-22T08:13:45;92878.09;;;16.30;38.46
57248;BME280;55809;46.618;10.764;2023-03-22T08:16:14;92874.50;;;16.20;38.39
57248;BME280;55809;46.618;10.764;2023-03-22T08:18:42;92878.28;;;16.61;37.24
57248;BME280;55809;46.618;10.764;2023-03-22T08:21:11;92825.31;;;16.62;37.52
57248;BME280;55809;46.618;10.764;2023-03-22T08:23:39;92877.78;;;17.01;36.77
57248;BME280;55809;46.618;10.764;2023-03-22T08:26:07;92879.44;;;17.11;36.25
57248;BME280;55809;46.618;10.764;2023-03-22T08:28:36;92832.81;;;16.83;36.43
57248;BME280;55809;46.618;10.764;2023-03-22T08:31:10;92880.75;;;17.41;35.63
57248;BME280;55809;46.618;10.764;2023-03-22T08:33:39;92881.44;;;17.54;34.69
57248;BME280;55809;46.618;10.764;2023-03-22T08:36:11;92885.50;;;17.72;34.73
57248;BME280;55809;46.618;10.764;2023-03-22T08:38:40;92881.03;;;17.78;34.59
57248;BME280;55809;46.618;10.764;2023-03-22T08:41:12;92840.94;;;17.75;34.81
57248;BME280;55809;46.618;10.764;2023-03-22T08:43:41;92883.44;;;17.98;34.24
57248;BME280;55809;46.618;10.764;2023-03-22T08:46:12;92879.53;;;18.08;33.61
57248;BME280;55809;46.618;10.764;2023-03-22T08:48:41;92875.16;;;18.11;33.56
57248;BME280;55809;46.618;10.764;2023-03-22T08:51:16;92877.63;;;18.18;33.84
57248;BME280;55809;46.618;10.764;2023-03-22T08:53:44;92870.53;;;18.30;33.42
57248;BME280;55809;46.618;10.764;2023-03-22T08:56:12;92871.50;;;18.45;32.96
57248;BME280;55809;46.618;10.764;2023-03-22T08:58:42;92865.59;;;18.56;32.94
57248;BME280;55809;46.618;10.764;2023-03-22T09:01:16;92862.13;;;18.55;33.90
57248;BME280;55809;46.618;10.764;2023-03-22T09:03:47;92862.53;;;18.44;34.91
57248;BME280;55809;46.618;10.764;2023-03-22T09:06:15;92864.09;;;18.55;33.08
57248;BME280;55809;46.618;10.764;2023-03-22T09:08:43;92859.75;;;18.66;32.92
57248;BME280;55809;46.618;10.764;2023-03-22T09:11:18;92855.22;;;18.82;32.90
57248;BME280;55809;46.618;10.764;2023-03-22T09:13:54;92818.25;;;18.59;33.10
57248;BME280;55809;46.618;10.764;2023-03-22T09:16:35;92855.88;;;19.04;32.67
57248;BME280;55809;46.618;10.764;2023-03-22T09:19:03;92817.03;;;18.69;33.38
57248;BME280;55809;46.618;10.764;2023-03-22T09:21:30;92844.91;;;18.95;32.70
57248;BME280;55809;46.618;10.764;2023-03-22T09:23:58;92836.72;;;18.95;32.31
57248;BME280;55809;46.618;10.764;2023-03-22T09:26:30;92833.53;;;18.87;32.54
57248;BME280;55809;46.618;10.764;2023-03-22T09:28:58;92837.88;;;18.66;32.74
57248;BME280;55809;46.618;10.764;2023-03-22T09:31:28;92811.41;;;18.54;33.68
57248;BME280;55809;46.618;10.764;2023-03-22T09:33:56;92826.84;;;18.79;33.46
57248;BME280;55809;46.618;10.764;2023-03-22T09:36:25;92814.63;;;18.71;33.99
57248;BME280;55809;46.618;10.764;2023-03-22T09:38:53;92818.78;;;18.76;33.58
57248;BME280;55809;46.618;10.764;2023-03-22T09:41:37;92816.34;;;18.78;33.92
57248;BME280;55809;46.618;10.764;2023-03-22T09:44:08;92811.81;;;18.93;35.02
57248;BME280;55809;46.618;10.764;2023-03-22T09:46:41;92803.00;;;19.07;33.75
57248;BME280;55809;46.618;10.764;2023-03-22T09:49:13;92800.13;;;18.92;34.18
57248;BME280;55809;46.618;10.764;2023-03-22T09:51:43;92792.66;;;18.84;33.73
57248;BME280;55809;46.618;10.764;2023-03-22T09:54:13;92798.44;;;18.95;33.96
57248;BME280;55809;46.618;10.764;2023-03-22T09:56:42;92788.72;;;18.94;34.06
57248;BME280;55809;46.618;10.764;2023-03-22T09:59:14;92759.22;;;18.98;33.88
57248;BME280;55809;46.618;10.764;2023-03-22T10:01:47;92787.03;;;19.33;34.02
57248;BME280;55809;46.618;10.764;2023-03-22T10:04:34;64767.38;;;-145.41;100.00
57248;BME280;55809;46.618;10.764;2023-03-22T10:07:15;64767.38;;;-145.41;100.00
57248;BME280;55809;46.618;10.764;2023-03-22T10:09:47;64767.38;;;-145.41;100.00
57248;BME280;55809;46.618;10.764;2023-03-22T10:12:24;64767.38;;;-145.41;100.00
57248;BME280;55809;46.618;10.764;2023-03-22T10:15:02;64767.38;;;-145.41;100.00
57248;BME280;55809;46.618;10.764;2023-03-22T10:17:51;64767.38;;;-145.41;100.00
57248;BME280;55809;46.618;10.764;2023-03-22T10:20:29;64767.38;;;-145.41;100.00
57248;BME280;55809;46.618;10.764;2023-03-22T10:22:59;64767.38;;;-145.41;100.00
57248;BME280;55809;46.618;10.764;2023-03-22T10:25:32;64767.38;;;-145.41;100.00
57248;BME280;55809;46.618;10.764;2023-03-22T10:28:12;64767.38;;;-145.41;100.00
57248;BME280;55809;46.618;10.764;2023-03-22T10:30:41;64767.38;;;-145.41;100.00
57248;BME280;55809;46.618;10.764;2023-03-22T10:33:25;64767.38;;;-145.41;100.00
57248;BME280;55809;46.618;10.764;2023-03-22T10:35:56;64767.38;;;-145.41;100.00
57248;BME280;55809;46.618;10.764;2023-03-22T10:38:26;64767.38;;;-145.41;100.00
57248;BME280;55809;46.618;10.764;2023-03-22T10:40:57;64767.38;;;-145.41;100.00
57248;BME280;55809;46.618;10.764;2023-03-22T10:43:30;64767.38;;;-145.41;100.00
57248;BME280;55809;46.618;10.764;2023-03-22T10:46:02;64767.38;;;-145.41;100.00
57248;BME280;55809;46.618;10.764;2023-03-22T10:48:35;64767.38;;;-145.41;100.00
57248;BME280;55809;46.618;10.764;2023-03-22T10:51:18;64767.38;;;-145.41;100.00
57248;BME280;55809;46.618;10.764;2023-03-22T10:53:49;64767.38;;;-145.41;100.00
57248;BME280;55809;46.618;10.764;2023-03-22T10:56:19;64767.38;;;-145.41;100.00
57248;BME280;55809;46.618;10.764;2023-03-22T10:58:48;64767.38;;;-145.41;100.00
57248;BME280;55809;46.618;10.764;2023-03-22T11:01:25;64767.38;;;-145.41;100.00
57248;BME280;55809;46.618;10.764;2023-03-22T11:03:57;64767.38;;;-145.41;100.00
57248;BME280;55809;46.618;10.764;2023-03-22T11:06:29;64767.38;;;-145.41;100.00
57248;BME280;55809;46.618;10.764;2023-03-22T11:08:58;64767.38;;;-145.41;100.00
57248;BME280;55809;46.618;10.764;2023-03-22T11:11:33;64767.38;;;-145.41;100.00
57248;BME280;55809;46.618;10.764;2023-03-22T11:14:05;64767.38;;;-145.41;100.00
57248;BME280;55809;46.618;10.764;2023-03-22T11:16:42;64767.38;;;-145.41;100.00
57248;BME280;55809;46.618;10.764;2023-03-22T11:19:23;64767.38;;;-145.41;100.00
57248;BME280;55809;46.618;10.764;2023-03-22T11:21:53;64767.38;;;-145.41;100.00
57248;BME280;55809;46.618;10.764;2023-03-22T11:24:24;64767.38;;;-145.41;100.00
57248;BME280;55809;46.618;10.764;2023-03-22T11:27:05;64767.38;;;-145.41;100.00
57248;BME280;55809;46.618;10.764;2023-03-22T11:29:39;64767.38;;;-145.41;100.00
57248;BME280;55809;46.618;10.764;2023-03-22T11:32:21;64767.38;;;-145.41;100.00
57248;BME280;55809;46.618;10.764;2023-03-22T11:35:00;64767.38;;;-145.41;100.00
57248;BME280;55809;46.618;10.764;2023-03-22T11:37:30;64767.38;;;-145.41;100.00
57248;BME280;55809;46.618;10.764;2023-03-22T11:39:59;64767.38;;;-145.41;100.00
57248;BME280;55809;46.618;10.764;2023-03-22T11:42:33;64767.38;;;-145.41;100.00
57248;BME280;55809;46.618;10.764;2023-03-22T11:45:01;64767.38;;;-145.41;100.00
57248;BME280;55809;46.618;10.764;2023-03-22T11:47:33;64767.38;;;-145.41;100.00
57248;BME280;55809;46.618;10.764;2023-03-22T11:50:05;64767.38;;;-145.41;100.00
57248;BME280;55809;46.618;10.764;2023-03-22T11:52:35;64767.38;;;-145.41;100.00
57248;BME280;55809;46.618;10.764;2023-03-22T11:55:02;64767.38;;;-145.41;100.00
57248;BME280;55809;46.618;10.764;2023-03-22T11:57:30;64767.38;;;-145.41;100.00
57248;BME280;55809;46.618;10.764;2023-03-22T12:00:02;64767.38;;;-145.41;100.00
57248;BME280;55809;46.618;10.764;2023-03-22T12:02:40;64767.38;;;-145.41;100.00
57248;BME280;55809;46.618;10.764;2023-03-22T12:05:15;64767.38;;;-145.41;100.00
57248;BME280;55809;46.618;10.764;2023-03-22T12:07:45;64767.38;;;-145.41;100.00
57248;BME280;55809;46.618;10.764;2023-03-22T12:10:17;64767.38;;;-145.41;100.00
57248;BME280;55809;46.618;10.764;2023-03-22T12:12:50;64767.38;;;-145.41;100.00
57248;BME280;55809;46.618;10.764;2023-03-22T12:15:20;64767.38;;;-145.41;100.00
57248;BME280;55809;46.618;10.764;2023-03-22T12:17:52;64767.38;;;-145.41;100.00
57248;BME280;55809;46.618;10.764;2023-03-22T12:20:33;64767.38;;;-145.41;100.00
57248;BME280;55809;46.618;10.764;2023-03-22T12:23:00;64767.38;;;-145.41;100.00
57248;BME280;55809;46.618;10.764;2023-03-22T12:25:30;64767.38;;;-145.41;100.00
57248;BME280;55809;46.618;10.764;2023-03-22T12:28:02;64767.38;;;-145.41;100.00
57248;BME280;55809;46.618;10.764;2023-03-22T12:30:37;64767.38;;;-145.41;100.00
57248;BME280;55809;46.618;10.764;2023-03-22T12:33:10;64767.38;;;-145.41;100.00
57248;BME280;55809;46.618;10.764;2023-03-22T12:35:44;64767.38;;;-145.41;100.00
57248;BME280;55809;46.618;10.764;2023-03-22T12:38:21;64767.38;;;-145.41;100.00
57248;BME280;55809;46.618;10.764;2023-03-22T12:40:50;64767.38;;;-145.41;100.00
57248;BME280;55809;46.618;10.764;2023-03-22T12:43:30;64767.38;;;-145.41;100.00
57248;BME280;55809;46.618;10.764;2023-03-22T12:46:02;64767.38;;;-145.41;100.00
57248;BME280;55809;46.618;10.764;2023-03-22T12:48:35;64767.38;;;-145.41;100.00
57248;BME280;55809;46.618;10.764;2023-03-22T12:51:09;64767.38;;;-145.41;100.00
57248;BME280;55809;46.618;10.764;2023-03-22T12:53:40;64767.38;;;-145.41;100.00
57248;BME280;55809;46.618;10.764;2023-03-22T12:56:10;64767.38;;;-145.41;100.00
57248;BME280;55809;46.618;10.764;2023-03-22T12:58:40;64767.38;;;-145.41;100.00
57248;BME280;55809;46.618;10.764;2023-03-22T13:01:21;64767.38;;;-145.41;100.00
57248;BME280;55809;46.618;10.764;2023-03-22T13:03:51;64767.38;;;-145.41;100.00
57248;BME280;55809;46.618;10.764;2023-03-22T13:06:56;64767.38;;;-145.41;100.00
57248;BME280;55809;46.618;10.764;2023-03-22T13:09:44;64767.38;;;-145.41;100.00
57248;BME280;55809;46.618;10.764;2023-03-22T13:12:32;64767.38;;;-145.41;100.00
57248;BME280;55809;46.618;10.764;2023-03-22T13:17:43;64767.38;;;-145.41;100.00
57248;BME280;55809;46.618;10.764;2023-03-22T13:20:29;92546.19;;;17.34;43.34
57248;BME280;55809;46.618;10.764;2023-03-22T13:23:25;92500.63;;;16.95;43.52
57248;BME280;55809;46.618;10.764;2023-03-22T13:26:01;92532.19;;;17.23;43.30